createdAt,value
2023-04-16T00:03:31.233Z,40.00
2023-04-16T00:07:33.118Z,38.10
2023-04-16T00:11:34.722Z,46.28
2023-04-16T00:15:36.618Z,38.97
2023-04-16T00:19:38.636Z,48.85
2023-04-16T00:23:40.341Z,47.53
2023-04-16T00:27:41.981Z,49.17
2023-04-16T00:31:43.629Z,48.83
2023-04-16T00:35:46.654Z,46.22
2023-04-16T00:39:48.317Z,54.35
2023-04-16T00:43:50.764Z,48.70
2023-04-16T00:47:52.898Z,49.25
2023-04-16T00:51:54.758Z,47.70
2023-04-16T00:55:57.393Z,52.38
2023-04-16T00:59:59.111Z,53.30
2023-04-16T01:04:01.055Z,51.95
2023-04-16T01:08:02.801Z,52.15
2023-04-16T01:12:04.611Z,51.17
2023-04-16T01:16:10.592Z,48.42
2023-04-16T01:20:12.270Z,50.45
2023-04-16T01:24:13.961Z,54.05
2023-04-16T01:28:15.760Z,45.20
2023-04-16T01:32:17.401Z,43.13
2023-04-16T01:36:19.114Z,51.90
2023-04-16T01:40:20.821Z,41.88
2023-04-16T01:44:23.106Z,49.03
2023-04-16T01:48:24.810Z,47.30
2023-04-16T01:52:26.542Z,51.80
2023-04-16T01:56:28.239Z,59.33
2023-04-16T02:00:29.990Z,51.90
2023-04-16T02:04:32.212Z,55.80
2023-04-16T02:08:33.920Z,58.45
2023-04-16T02:12:35.892Z,53.65
2023-04-16T02:16:37.849Z,56.58
2023-04-16T02:20:44.286Z,61.85
2023-04-16T02:24:45.995Z,63.40
2023-04-16T02:28:47.636Z,62.50
2023-04-16T02:32:49.648Z,57.78
2023-04-16T02:36:51.603Z,59.00
2023-04-16T02:40:53.514Z,62.78
2023-04-16T02:44:55.194Z,63.35
2023-04-16T02:48:56.892Z,57.72
2023-04-16T02:52:58.979Z,55.15
2023-04-16T02:57:00.729Z,59.65
2023-04-16T03:01:02.457Z,53.87
2023-04-16T03:05:04.546Z,56.78
2023-04-16T03:09:06.222Z,61.92
2023-04-16T03:13:08.089Z,53.50
2023-04-16T03:17:09.793Z,62.47
2023-04-16T03:21:11.515Z,51.47
2023-04-16T03:25:13.782Z,49.45
2023-04-16T03:29:15.465Z,44.15
2023-04-16T03:33:17.105Z,48.10
2023-04-16T03:37:18.865Z,45.55
2023-04-16T03:41:20.563Z,47.13
2023-04-16T03:45:22.241Z,54.53
2023-04-16T03:49:23.990Z,49.28
2023-04-16T03:53:25.815Z,46.63
2023-04-16T03:57:27.438Z,47.95
2023-04-16T04:01:29.071Z,43.53
2023-04-16T04:05:30.754Z,50.63
2023-04-16T04:09:33.933Z,44.60
2023-04-16T04:13:35.696Z,48.83
2023-04-16T04:17:37.451Z,53.80
2023-04-16T04:21:39.124Z,51.33
2023-04-16T04:25:40.751Z,53.38
2023-04-16T04:29:42.391Z,48.13
2023-04-16T04:33:44.171Z,45.78
2023-04-16T04:37:45.894Z,48.58
2023-04-16T04:41:48.167Z,51.45
2023-04-16T04:45:49.977Z,49.45
2023-04-16T04:49:51.607Z,51.17
2023-04-16T04:53:53.334Z,49.05
2023-04-16T04:57:54.989Z,58.08
2023-04-16T05:01:56.701Z,54.20
2023-04-16T05:05:58.406Z,50.45
2023-04-16T05:10:00.501Z,50.60
2023-04-16T05:14:02.194Z,55.83
2023-04-16T05:18:04.329Z,55.15
2023-04-16T05:22:06.213Z,51.22
2023-04-16T05:26:07.832Z,52.38
2023-04-16T05:30:09.981Z,54.22
2023-04-16T05:34:11.742Z,51.72
2023-04-16T05:38:13.415Z,46.28
2023-04-16T05:42:15.304Z,45.42
2023-04-16T05:46:17.026Z,53.17
2023-04-16T05:50:18.802Z,45.03
2023-04-16T05:54:20.535Z,48.67
2023-04-16T05:58:22.215Z,45.12
2023-04-16T06:02:24.032Z,41.83
2023-04-16T06:06:27.282Z,53.47
2023-04-16T06:10:29.231Z,48.35
2023-04-16T06:14:31.070Z,44.50
2023-04-16T06:18:32.754Z,46.10
2023-04-16T06:22:34.750Z,43.03
2023-04-16T06:26:36.464Z,39.50
2023-04-16T06:30:39.268Z,46.30
2023-04-16T06:34:41.405Z,40.90
2023-04-16T06:38:43.515Z,43.33
2023-04-16T06:42:45.817Z,49.83
2023-04-16T06:46:47.641Z,46.37
2023-04-16T06:50:49.426Z,43.17
2023-04-16T06:54:51.160Z,40.72
2023-04-16T06:58:52.802Z,39.20
2023-04-16T07:02:56.983Z,30.52
2023-04-16T07:06:59.954Z,35.58
2023-04-16T07:11:01.597Z,34.03
2023-04-16T07:15:03.369Z,36.25
2023-04-16T07:19:05.331Z,34.17
2023-04-16T07:23:06.993Z,34.78
2023-04-16T07:27:08.653Z,38.75
2023-04-16T07:31:10.329Z,33.95
2023-04-16T07:35:11.944Z,33.20
2023-04-16T07:39:13.599Z,35.28
2023-04-16T07:43:16.553Z,33.33
2023-04-16T07:47:18.298Z,34.08
2023-04-16T07:51:20.359Z,36.00
2023-04-16T07:55:22.102Z,33.75
2023-04-16T07:59:24.559Z,34.97
2023-04-16T08:03:26.767Z,32.17
2023-04-16T08:07:28.638Z,37.47
2023-04-16T08:11:30.390Z,34.60
2023-04-16T08:15:32.297Z,33.80
2023-04-16T08:19:33.962Z,34.40
2023-04-16T08:23:35.871Z,32.80
2023-04-16T08:27:37.576Z,31.50
2023-04-16T08:31:39.469Z,35.65
2023-04-16T08:35:41.246Z,30.83
2023-04-16T08:39:42.920Z,32.88
2023-04-16T08:43:45.376Z,33.53
2023-04-16T08:47:49.784Z,29.52
2023-04-16T08:51:55.800Z,28.60
2023-04-16T08:56:01.589Z,30.15
2023-04-16T09:00:03.935Z,36.45
2023-04-16T09:04:07.289Z,32.70
2023-04-16T09:08:09.157Z,30.55
2023-04-16T09:12:10.984Z,32.88
2023-04-16T09:16:14.090Z,28.50
2023-04-16T09:20:15.917Z,28.83
2023-04-16T09:24:18.460Z,23.55
2023-04-16T09:28:43.624Z,26.17
2023-04-16T09:32:45.350Z,29.70
2023-04-16T09:36:47.216Z,26.62
2023-04-16T09:41:06.200Z,34.30
2023-04-16T09:45:08.318Z,24.85
2023-04-16T09:49:17.024Z,23.67
2023-04-16T09:53:29.329Z,26.52
2023-04-16T09:57:31.083Z,25.50
2023-04-16T10:01:32.873Z,27.50
2023-04-16T10:05:34.706Z,26.77
2023-04-16T10:09:39.544Z,23.92
2023-04-16T10:13:41.222Z,21.75
2023-04-16T10:17:43.407Z,25.50
2023-04-16T10:21:46.225Z,26.20
2023-04-16T10:25:52.131Z,22.37
2023-04-16T10:29:53.989Z,26.37
2023-04-16T10:33:56.668Z,21.27
2023-04-16T10:38:18.294Z,22.13
2023-04-16T10:42:19.959Z,26.08
2023-04-16T10:46:27.066Z,22.27
2023-04-16T10:54:37.352Z,24.23
2023-04-16T10:58:39.264Z,22.98
2023-04-16T11:02:41.559Z,22.50
2023-04-16T11:07:02.260Z,22.50
2023-04-16T11:11:05.546Z,18.87
2023-04-16T11:15:09.567Z,19.17
2023-04-16T11:19:16.981Z,22.80
2023-04-16T11:23:18.654Z,19.65
2023-04-16T11:27:20.643Z,18.58
2023-04-16T11:31:23.377Z,18.52
2023-04-16T11:35:25.346Z,17.55
2023-04-16T11:39:27.070Z,19.08
2023-04-16T11:43:28.839Z,16.23
2023-04-16T11:47:31.524Z,14.90
2023-04-16T11:51:33.454Z,15.38
2023-04-16T11:55:46.931Z,14.32
2023-04-16T12:00:02.297Z,14.23
2023-04-16T12:04:06.279Z,14.13
2023-04-16T12:08:12.318Z,17.05
2023-04-16T12:12:32.100Z,14.82
2023-04-16T12:16:35.903Z,14.10
2023-04-16T12:20:43.918Z,15.82
2023-04-16T12:24:45.527Z,16.60
2023-04-16T12:28:47.223Z,16.48
2023-04-16T12:32:51.856Z,12.37
2023-04-16T12:37:09.519Z,13.57
2023-04-16T12:41:11.208Z,14.70
2023-04-16T12:45:12.868Z,16.90
2023-04-16T12:49:14.580Z,15.65
2023-04-16T12:53:16.274Z,15.27
2023-04-16T12:57:17.926Z,15.32
2023-04-16T13:01:20.272Z,14.10
2023-04-16T13:05:21.986Z,16.62
2023-04-16T13:09:23.890Z,15.50
2023-04-16T13:13:25.702Z,15.30
2023-04-16T13:17:27.526Z,16.35
2023-04-16T13:21:29.235Z,16.23
2023-04-16T13:25:31.595Z,14.18
2023-04-16T13:29:33.394Z,15.45
2023-04-16T13:33:35.139Z,17.23
2023-04-16T13:37:36.789Z,15.52
2023-04-16T13:41:39.007Z,17.48
2023-04-16T13:45:41.370Z,15.43
2023-04-16T13:49:44.026Z,16.80
2023-04-16T13:53:45.838Z,16.42
2023-04-16T13:57:48.004Z,16.17
2023-04-16T14:01:49.822Z,15.98
2023-04-16T14:05:51.565Z,16.83
2023-04-16T14:09:54.119Z,17.75
2023-04-16T14:13:56.019Z,17.42
2023-04-16T14:17:57.702Z,17.58
2023-04-16T14:21:59.532Z,17.73
2023-04-16T14:26:01.257Z,23.85
2023-04-16T14:30:03.132Z,19.33
2023-04-16T14:34:04.840Z,15.75
2023-04-16T14:38:06.518Z,16.42
2023-04-16T14:42:08.221Z,19.48
2023-04-16T14:46:10.283Z,14.93
2023-04-16T14:50:13.035Z,13.98
2023-04-16T14:54:14.809Z,13.02
2023-04-16T14:58:16.449Z,14.32
2023-04-16T15:02:18.355Z,15.20
2023-04-16T15:06:20.284Z,15.45
2023-04-16T15:10:22.065Z,14.82
2023-04-16T15:14:23.963Z,13.15
2023-04-16T15:18:25.700Z,14.55
2023-04-16T15:22:27.391Z,16.05
2023-04-16T15:26:30.178Z,13.27
2023-04-16T15:30:31.830Z,14.80
2023-04-16T15:34:33.522Z,12.75
2023-04-16T15:38:35.529Z,13.68
2023-04-16T15:42:37.211Z,12.95
2023-04-16T15:46:38.997Z,13.02
2023-04-16T15:50:40.841Z,14.57
2023-04-16T15:54:43.094Z,10.23
2023-04-16T15:58:44.782Z,10.07
2023-04-16T16:02:47.159Z,12.63
2023-04-16T16:06:52.687Z,12.00
2023-04-16T16:10:54.614Z,10.93
2023-04-16T16:14:56.621Z,11.65
2023-04-16T16:18:58.398Z,11.40
2023-04-16T16:23:00.443Z,12.32
2023-04-16T16:27:02.127Z,12.05
2023-04-16T16:31:05.710Z,13.00
2023-04-16T16:35:08.918Z,11.77
2023-04-16T16:39:10.888Z,20.85
2023-04-16T16:43:12.750Z,27.35
2023-04-16T16:47:14.547Z,25.83
2023-04-16T16:51:18.709Z,22.62
2023-04-16T16:55:20.835Z,26.83
2023-04-16T16:59:22.525Z,22.73
2023-04-16T17:03:24.292Z,28.85
2023-04-16T17:07:26.232Z,24.70
2023-04-16T17:11:29.126Z,26.37
2023-04-16T17:15:30.930Z,26.02
2023-04-16T17:19:32.646Z,26.75
2023-04-16T17:23:34.338Z,29.60
2023-04-16T17:27:36.148Z,28.50
2023-04-16T17:31:37.849Z,31.42
2023-04-16T17:35:40.355Z,34.55
2023-04-16T17:39:42.559Z,29.60
2023-04-16T17:43:46.476Z,30.95
2023-04-16T17:47:48.147Z,27.60
2023-04-16T17:51:49.890Z,36.63
2023-04-16T17:55:53.602Z,32.47
2023-04-16T17:59:57.094Z,34.40
2023-04-16T18:03:58.958Z,29.23
2023-04-16T18:08:01.036Z,34.05
2023-04-16T18:12:03.006Z,34.45
2023-04-16T18:16:04.902Z,34.70
2023-04-16T18:20:09.130Z,35.08
2023-04-16T18:24:11.260Z,31.75
2023-04-16T18:28:14.265Z,34.45
2023-04-16T18:32:16.234Z,33.58
2023-04-16T18:36:18.142Z,37.58
2023-04-16T18:40:19.844Z,35.75
2023-04-16T18:44:21.479Z,33.10
2023-04-16T18:48:23.185Z,34.67
2023-04-16T18:52:24.873Z,36.58
2023-04-16T18:56:29.651Z,33.10
2023-04-16T19:00:31.668Z,29.35
2023-04-16T19:04:33.519Z,34.80
2023-04-16T19:08:35.389Z,33.40
2023-04-16T19:12:37.107Z,28.48
2023-04-16T19:16:38.981Z,37.90
2023-04-16T19:20:40.995Z,37.13
2023-04-16T19:24:42.640Z,38.15
2023-04-16T19:28:45.508Z,32.83
2023-04-16T19:32:47.316Z,31.12
2023-04-16T19:36:49.000Z,29.90
2023-04-16T19:40:50.651Z,29.15
2023-04-16T19:44:52.412Z,27.87
2023-04-16T19:48:54.099Z,27.52
2023-04-16T19:52:55.796Z,27.87
2023-04-16T19:56:57.490Z,34.45
2023-04-16T20:00:59.300Z,24.80
2023-04-16T20:05:01.621Z,27.42
2023-04-16T20:09:04.532Z,28.62
2023-04-16T20:13:10.160Z,25.30
2023-04-16T20:17:12.013Z,33.60
2023-04-16T20:21:13.785Z,25.62
2023-04-16T20:25:18.846Z,31.55
2023-04-16T20:29:20.569Z,28.52
2023-04-16T20:33:22.232Z,26.98
2023-04-16T20:37:23.884Z,29.30
2023-04-16T20:41:25.499Z,31.98
2023-04-16T20:45:38.172Z,28.67
2023-04-16T20:49:40.163Z,29.33
2023-04-16T20:53:41.799Z,29.65
2023-04-16T20:57:43.538Z,31.15
2023-04-16T21:01:45.563Z,31.30
2023-04-16T21:05:51.710Z,29.83
2023-04-16T21:09:53.315Z,34.75
2023-04-16T21:13:54.933Z,31.95
2023-04-16T21:17:56.610Z,28.87
2023-04-16T21:21:58.375Z,31.25
2023-04-16T21:26:00.185Z,33.63
2023-04-16T21:30:01.862Z,33.55
2023-04-16T21:34:03.749Z,32.50
2023-04-16T21:38:05.575Z,30.62
2023-04-16T21:42:07.214Z,33.78
2023-04-16T21:46:08.907Z,35.03
2023-04-16T21:50:11.134Z,38.13
2023-04-16T21:54:13.212Z,32.08
2023-04-16T21:58:15.524Z,35.90
2023-04-16T22:02:17.289Z,36.58
2023-04-16T22:06:20.238Z,40.78
2023-04-16T22:10:22.553Z,35.60
2023-04-16T22:14:24.632Z,34.40
2023-04-16T22:18:26.358Z,38.03
2023-04-16T22:22:28.039Z,40.70
2023-04-16T22:26:29.723Z,36.38
2023-04-16T22:30:31.426Z,38.00
2023-04-16T22:34:33.125Z,40.72
2023-04-16T22:38:34.794Z,40.78
2023-04-16T22:42:36.531Z,39.30
2023-04-16T22:46:38.269Z,39.63
2023-04-16T22:50:41.067Z,45.22
2023-04-16T22:54:42.757Z,41.83
2023-04-16T22:58:45.453Z,39.38
2023-04-16T23:02:47.472Z,37.70
2023-04-16T23:06:49.235Z,39.92
2023-04-16T23:10:50.957Z,43.55
2023-04-16T23:14:53.013Z,44.58
2023-04-16T23:18:55.044Z,38.03
2023-04-16T23:22:56.667Z,40.72
2023-04-16T23:26:58.375Z,40.17
2023-04-16T23:31:00.261Z,37.20
2023-04-16T23:35:02.110Z,40.75
2023-04-16T23:39:03.817Z,44.10
2023-04-16T23:43:05.550Z,47.60
2023-04-16T23:47:07.208Z,41.70
2023-04-16T23:51:08.816Z,43.80
2023-04-16T23:55:10.512Z,44.78
2023-04-16T23:59:12.776Z,41.88
